sensor_id;sensor_type;location;lat;lon;timestamp;temperature;humidity
19734;DHT22;10018;51.230;7.860;2022-07-22T00:02:23;17.40;99.90
19734;DHT22;10018;51.230;7.860;2022-07-22T00:04:49;17.40;99.90
19734;DHT22;10018;51.230;7.860;2022-07-22T00:07:14;17.40;99.90
19734;DHT22;10018;51.230;7.860;2022-07-22T00:09:40;17.50;99.90
19734;DHT22;10018;51.230;7.860;2022-07-22T00:12:06;17.50;99.90
19734;DHT22;10018;51.230;7.860;2022-07-22T00:14:32;17.40;99.90
19734;DHT22;10018;51.230;7.860;2022-07-22T00:16:57;17.30;99.90
19734;DHT22;10018;51.230;7.860;2022-07-22T00:19:23;17.30;99.90
19734;DHT22;10018;51.230;7.860;2022-07-22T00:21:50;17.30;99.90
19734;DHT22;10018;51.230;7.860;2022-07-22T00:24:16;17.30;99.90
19734;DHT22;10018;51.230;7.860;2022-07-22T00:26:41;17.30;99.90
19734;DHT22;10018;51.230;7.860;2022-07-22T00:29:07;17.30;99.90
19734;DHT22;10018;51.230;7.860;2022-07-22T00:31:33;17.30;99.90
19734;DHT22;10018;51.230;7.860;2022-07-22T00:34:00;17.20;99.90
19734;DHT22;10018;51.230;7.860;2022-07-22T00:36:27;17.20;99.90
19734;DHT22;10018;51.230;7.860;2022-07-22T00:38:52;17.20;99.90
19734;DHT22;10018;51.230;7.860;2022-07-22T00:41:18;17.20;99.90
19734;DHT22;10018;51.230;7.860;2022-07-22T00:43:54;17.20;99.90
19734;DHT22;10018;51.230;7.860;2022-07-22T00:46:20;17.30;99.90
19734;DHT22;10018;51.230;7.860;2022-07-22T00:48:46;17.20;99.90
19734;DHT22;10018;51.230;7.860;2022-07-22T00:51:13;17.30;99.90
19734;DHT22;10018;51.230;7.860;2022-07-22T00:53:38;17.30;99.90
19734;DHT22;10018;51.230;7.860;2022-07-22T00:56:04;17.30;99.90
19734;DHT22;10018;51.230;7.860;2022-07-22T00:58:30;17.20;99.90
19734;DHT22;10018;51.230;7.860;2022-07-22T01:00:55;17.20;99.90
19734;DHT22;10018;51.230;7.860;2022-07-22T01:03:21;17.20;99.90
19734;DHT22;10018;51.230;7.860;2022-07-22T01:05:47;17.20;99.90
19734;DHT22;10018;51.230;7.860;2022-07-22T01:08:12;17.20;99.90
19734;DHT22;10018;51.230;7.860;2022-07-22T01:10:38;17.20;99.90
19734;DHT22;10018;51.230;7.860;2022-07-22T01:13:04;17.20;99.90
19734;DHT22;10018;51.230;7.860;2022-07-22T01:15:30;17.10;99.90
19734;DHT22;10018;51.230;7.860;2022-07-22T01:17:55;17.10;99.90
19734;DHT22;10018;51.230;7.860;2022-07-22T01:20:21;17.10;99.90
19734;DHT22;10018;51.230;7.860;2022-07-22T01:22:46;17.10;99.90
19734;DHT22;10018;51.230;7.860;2022-07-22T01:25:12;17.10;99.90
19734;DHT22;10018;51.230;7.860;2022-07-22T01:27:37;17.00;99.90
19734;DHT22;10018;51.230;7.860;2022-07-22T01:30:06;17.10;99.90
19734;DHT22;10018;51.230;7.860;2022-07-22T01:32:33;17.10;99.90
19734;DHT22;10018;51.230;7.860;2022-07-22T01:34:58;17.00;99.90
19734;DHT22;10018;51.230;7.860;2022-07-22T01:37:24;17.10;99.90
19734;DHT22;10018;51.230;7.860;2022-07-22T01:39:49;17.00;99.90
19734;DHT22;10018;51.230;7.860;2022-07-22T01:42:15;17.10;99.90
19734;DHT22;10018;51.230;7.860;2022-07-22T01:44:41;17.10;99.90
19734;DHT22;10018;51.230;7.860;2022-07-22T01:47:07;17.10;99.90
19734;DHT22;10018;51.230;7.860;2022-07-22T01:49:33;17.10;99.90
19734;DHT22;10018;51.230;7.860;2022-07-22T01:52:00;17.10;99.90
19734;DHT22;10018;51.230;7.860;2022-07-22T01:54:26;17.10;99.90
19734;DHT22;10018;51.230;7.860;2022-07-22T01:56:51;17.00;99.90
19734;DHT22;10018;51.230;7.860;2022-07-22T01:59:17;17.10;99.90
19734;DHT22;10018;51.230;7.860;2022-07-22T02:01:42;17.10;99.90
19734;DHT22;10018;51.230;7.860;2022-07-22T02:04:08;17.00;99.90
19734;DHT22;10018;51.230;7.860;2022-07-22T02:06:33;17.10;99.90
19734;DHT22;10018;51.230;7.860;2022-07-22T02:08:59;17.00;99.90
19734;DHT22;10018;51.230;7.860;2022-07-22T02:11:24;17.00;99.90
19734;DHT22;10018;51.230;7.860;2022-07-22T02:13:50;17.00;99.90
19734;DHT22;10018;51.230;7.860;2022-07-22T02:16:15;17.00;99.90
19734;DHT22;10018;51.230;7.860;2022-07-22T02:18:41;17.00;99.90
19734;DHT22;10018;51.230;7.860;2022-07-22T02:21:06;17.00;99.90
19734;DHT22;10018;51.230;7.860;2022-07-22T02:23:32;17.00;99.90
19734;DHT22;10018;51.230;7.860;2022-07-22T02:25:57;17.00;99.90
19734;DHT22;10018;51.230;7.860;2022-07-22T02:28:23;16.90;99.90
19734;DHT22;10018;51.230;7.860;2022-07-22T02:30:48;16.90;99.90
19734;DHT22;10018;51.230;7.860;2022-07-22T02:33:14;16.80;99.90
19734;DHT22;10018;51.230;7.860;2022-07-22T02:35:40;16.90;99.90
19734;DHT22;10018;51.230;7.860;2022-07-22T02:38:05;16.80;99.90
19734;DHT22;10018;51.230;7.860;2022-07-22T02:40:31;16.80;99.90
19734;DHT22;10018;51.230;7.860;2022-07-22T02:42:57;16.80;99.90
19734;DHT22;10018;51.230;7.860;2022-07-22T02:45:22;16.80;99.90
19734;DHT22;10018;51.230;7.860;2022-07-22T02:47:53;16.80;99.90
19734;DHT22;10018;51.230;7.860;2022-07-22T02:50:20;16.80;99.90
19734;DHT22;10018;51.230;7.860;2022-07-22T02:52:46;16.80;99.90
19734;DHT22;10018;51.230;7.860;2022-07-22T02:55:11;16.70;99.90
19734;DHT22;10018;51.230;7.860;2022-07-22T02:57:37;16.70;99.90
19734;DHT22;10018;51.230;7.860;2022-07-22T03:00:04;16.70;99.90
19734;DHT22;10018;51.230;7.860;2022-07-22T03:02:30;16.80;99.90
19734;DHT22;10018;51.230;7.860;2022-07-22T03:04:55;16.70;99.90
19734;DHT22;10018;51.230;7.860;2022-07-22T03:07:21;16.60;99.90
19734;DHT22;10018;51.230;7.860;2022-07-22T03:09:46;16.60;99.90
19734;DHT22;10018;51.230;7.860;2022-07-22T03:12:12;16.60;99.90
19734;DHT22;10018;51.230;7.860;2022-07-22T03:14:37;16.60;99.90
19734;DHT22;10018;51.230;7.860;2022-07-22T03:17:03;16.50;99.90
19734;DHT22;10018;51.230;7.860;2022-07-22T03:19:28;16.50;99.90
19734;DHT22;10018;51.230;7.860;2022-07-22T03:21:54;16.50;99.90
19734;DHT22;10018;51.230;7.860;2022-07-22T03:24:19;16.60;99.90
19734;DHT22;10018;51.230;7.860;2022-07-22T03:26:45;16.60;99.90
19734;DHT22;10018;51.230;7.860;2022-07-22T03:29:10;16.60;99.90
19734;DHT22;10018;51.230;7.860;2022-07-22T03:31:36;16.50;99.90
19734;DHT22;10018;51.230;7.860;2022-07-22T03:34:02;16.50;99.90
19734;DHT22;10018;51.230;7.860;2022-07-22T03:36:28;16.50;99.90
19734;DHT22;10018;51.230;7.860;2022-07-22T03:38:54;16.50;99.90
19734;DHT22;10018;51.230;7.860;2022-07-22T03:41:20;16.50;99.90
19734;DHT22;10018;51.230;7.860;2022-07-22T03:43:46;16.50;99.90
19734;DHT22;10018;51.230;7.860;2022-07-22T03:46:12;16.50;99.90
19734;DHT22;10018;51.230;7.860;2022-07-22T03:48:38;16.60;99.90
19734;DHT22;10018;51.230;7.860;2022-07-22T03:51:04;16.60;99.90
19734;DHT22;10018;51.230;7.860;2022-07-22T03:53:29;16.50;99.90
19734;DHT22;10018;51.230;7.860;2022-07-22T03:55:55;16.40;99.90
19734;DHT22;10018;51.230;7.860;2022-07-22T03:58:20;16.40;99.90
19734;DHT22;10018;51.230;7.860;2022-07-22T04:00:46;16.40;99.90
19734;DHT22;10018;51.230;7.860;2022-07-22T04:03:11;16.40;99.90
19734;DHT22;10018;51.230;7.860;2022-07-22T04:05:37;16.30;99.90
19734;DHT22;10018;51.230;7.860;2022-07-22T04:08:03;16.30;99.90
19734;DHT22;10018;51.230;7.860;2022-07-22T04:10:28;16.30;99.90
19734;DHT22;10018;51.230;7.860;2022-07-22T04:12:54;16.30;99.90
19734;DHT22;10018;51.230;7.860;2022-07-22T04:15:19;16.30;99.90
19734;DHT22;10018;51.230;7.860;2022-07-22T04:17:45;16.30;99.90
19734;DHT22;10018;51.230;7.860;2022-07-22T04:20:10;16.30;99.90
19734;DHT22;10018;51.230;7.860;2022-07-22T04:22:36;16.30;99.90
19734;DHT22;10018;51.230;7.860;2022-07-22T04:25:01;16.40;99.90
19734;DHT22;10018;51.230;7.860;2022-07-22T04:27:27;16.30;99.90
19734;DHT22;10018;51.230;7.860;2022-07-22T04:29:52;16.30;99.90
19734;DHT22;10018;51.230;7.860;2022-07-22T04:32:18;16.30;99.90
19734;DHT22;10018;51.230;7.860;2022-07-22T04:34:43;16.30;99.90
19734;DHT22;10018;51.230;7.860;2022-07-22T04:37:09;16.30;99.90
19734;DHT22;10018;51.230;7.860;2022-07-22T04:39:34;16.40;99.90
19734;DHT22;10018;51.230;7.860;2022-07-22T04:42:00;16.40;99.90
19734;DHT22;10018;51.230;7.860;2022-07-22T04:44:25;16.40;99.90
19734;DHT22;10018;51.230;7.860;2022-07-22T04:46:51;16.40;99.90
19734;DHT22;10018;51.230;7.860;2022-07-22T04:49:16;16.40;99.90
19734;DHT22;10018;51.230;7.860;2022-07-22T04:51:42;16.30;99.90
19734;DHT22;10018;51.230;7.860;2022-07-22T04:54:07;16.30;99.90
19734;DHT22;10018;51.230;7.860;2022-07-22T04:56:33;16.30;99.90
19734;DHT22;10018;51.230;7.860;2022-07-22T04:58:58;16.20;99.90
19734;DHT22;10018;51.230;7.860;2022-07-22T05:01:24;16.10;99.90
19734;DHT22;10018;51.230;7.860;2022-07-22T05:03:49;16.20;99.90
19734;DHT22;10018;51.230;7.860;2022-07-22T05:06:17;16.10;99.90
19734;DHT22;10018;51.230;7.860;2022-07-22T05:08:42;16.10;99.90
19734;DHT22;10018;51.230;7.860;2022-07-22T05:11:08;16.00;99.90
19734;DHT22;10018;51.230;7.860;2022-07-22T05:13:34;16.10;99.90
19734;DHT22;10018;51.230;7.860;2022-07-22T05:16:04;16.10;99.90
19734;DHT22;10018;51.230;7.860;2022-07-22T05:18:30;16.10;99.90
19734;DHT22;10018;51.230;7.860;2022-07-22T05:20:56;16.20;99.90
19734;DHT22;10018;51.230;7.860;2022-07-22T05:23:21;16.20;99.90
19734;DHT22;10018;51.230;7.860;2022-07-22T05:25:47;16.30;99.90
19734;DHT22;10018;51.230;7.860;2022-07-22T05:28:12;16.30;99.90
19734;DHT22;10018;51.230;7.860;2022-07-22T05:30:38;16.40;99.90
19734;DHT22;10018;51.230;7.860;2022-07-22T05:33:03;16.50;99.90
19734;DHT22;10018;51.230;7.860;2022-07-22T05:35:29;16.50;99.90
19734;DHT22;10018;51.230;7.860;2022-07-22T05:37:54;16.50;99.90
19734;DHT22;10018;51.230;7.860;2022-07-22T05:40:20;16.50;99.90
19734;DHT22;10018;51.230;7.860;2022-07-22T05:42:46;16.50;99.90
19734;DHT22;10018;51.230;7.860;2022-07-22T05:45:11;16.50;99.90
19734;DHT22;10018;51.230;7.860;2022-07-22T05:47:37;16.50;99.90
19734;DHT22;10018;51.230;7.860;2022-07-22T05:50:03;16.50;99.90
19734;DHT22;10018;51.230;7.860;2022-07-22T05:52:28;16.50;99.90
19734;DHT22;10018;51.230;7.860;2022-07-22T05:54:54;16.60;99.90
19734;DHT22;10018;51.230;7.860;2022-07-22T05:57:19;16.60;99.90
19734;DHT22;10018;51.230;7.860;2022-07-22T05:59:45;16.70;99.90
19734;DHT22;10018;51.230;7.860;2022-07-22T06:02:10;16.70;99.90
19734;DHT22;10018;51.230;7.860;2022-07-22T06:04:36;16.70;99.90
19734;DHT22;10018;51.230;7.860;2022-07-22T06:07:01;16.80;99.90
19734;DHT22;10018;51.230;7.860;2022-07-22T06:09:27;16.70;99.90
19734;DHT22;10018;51.230;7.860;2022-07-22T06:11:52;16.70;99.90
19734;DHT22;10018;51.230;7.860;2022-07-22T06:14:18;16.80;99.90
19734;DHT22;10018;51.230;7.860;2022-07-22T06:16:43;16.90;99.90
19734;DHT22;10018;51.230;7.860;2022-07-22T06:19:09;16.90;99.90
19734;DHT22;10018;51.230;7.860;2022-07-22T06:21:34;16.90;99.90
19734;DHT22;10018;51.230;7.860;2022-07-22T06:24:01;16.90;99.90
19734;DHT22;10018;51.230;7.860;2022-07-22T06:26:26;16.90;99.90
19734;DHT22;10018;51.230;7.860;2022-07-22T06:28:52;16.90;99.90
19734;DHT22;10018;51.230;7.860;2022-07-22T06:31:17;17.00;99.90
19734;DHT22;10018;51.230;7.860;2022-07-22T06:33:43;16.90;99.90
19734;DHT22;10018;51.230;7.860;2022-07-22T06:36:08;16.90;99.90
19734;DHT22;10018;51.230;7.860;2022-07-22T06:38:34;17.00;99.90
19734;DHT22;10018;51.230;7.860;2022-07-22T06:41:00;17.00;99.90
19734;DHT22;10018;51.230;7.860;2022-07-22T06:43:26;17.00;99.90
19734;DHT22;10018;51.230;7.860;2022-07-22T06:45:53;16.90;99.90
19734;DHT22;10018;51.230;7.860;2022-07-22T06:48:18;17.00;99.90
19734;DHT22;10018;51.230;7.860;2022-07-22T06:50:44;17.00;99.90
19734;DHT22;10018;51.230;7.860;2022-07-22T06:53:09;17.10;99.90
19734;DHT22;10018;51.230;7.860;2022-07-22T06:55:35;17.10;99.90
19734;DHT22;10018;51.230;7.860;2022-07-22T06:58:00;17.00;99.90
19734;DHT22;10018;51.230;7.860;2022-07-22T07:00:26;17.00;99.90
19734;DHT22;10018;51.230;7.860;2022-07-22T07:02:52;17.10;99.90
19734;DHT22;10018;51.230;7.860;2022-07-22T07:05:17;17.10;99.90
19734;DHT22;10018;51.230;7.860;2022-07-22T07:07:43;17.00;99.90
19734;DHT22;10018;51.230;7.860;2022-07-22T07:10:08;17.00;99.90
19734;DHT22;10018;51.230;7.860;2022-07-22T07:12:36;17.10;99.90
19734;DHT22;10018;51.230;7.860;2022-07-22T07:15:02;17.10;99.90
19734;DHT22;10018;51.230;7.860;2022-07-22T07:17:28;17.10;99.90
19734;DHT22;10018;51.230;7.860;2022-07-22T07:19:53;16.90;99.90
19734;DHT22;10018;51.230;7.860;2022-07-22T07:22:19;16.90;99.90
19734;DHT22;10018;51.230;7.860;2022-07-22T07:24:44;16.90;99.90
19734;DHT22;10018;51.230;7.860;2022-07-22T07:27:10;16.80;99.90
19734;DHT22;10018;51.230;7.860;2022-07-22T07:29:35;16.90;99.90
19734;DHT22;10018;51.230;7.860;2022-07-22T07:32:01;16.90;99.90
19734;DHT22;10018;51.230;7.860;2022-07-22T07:34:27;17.00;99.90
19734;DHT22;10018;51.230;7.860;2022-07-22T07:36:52;17.10;99.90
19734;DHT22;10018;51.230;7.860;2022-07-22T07:39:18;17.10;99.90
19734;DHT22;10018;51.230;7.860;2022-07-22T07:41:43;17.10;99.90
19734;DHT22;10018;51.230;7.860;2022-07-22T07:44:09;17.00;99.90
19734;DHT22;10018;51.230;7.860;2022-07-22T07:46:34;16.90;99.90
19734;DHT22;10018;51.230;7.860;2022-07-22T07:49:00;16.80;99.90
19734;DHT22;10018;51.230;7.860;2022-07-22T07:51:25;16.70;99.90
19734;DHT22;10018;51.230;7.860;2022-07-22T07:53:51;16.70;99.90
19734;DHT22;10018;51.230;7.860;2022-07-22T07:56:16;16.80;99.90
19734;DHT22;10018;51.230;7.860;2022-07-22T07:58:42;16.70;99.90
19734;DHT22;10018;51.230;7.860;2022-07-22T08:01:07;16.80;99.90
19734;DHT22;10018;51.230;7.860;2022-07-22T08:03:33;16.80;99.90
19734;DHT22;10018;51.230;7.860;2022-07-22T08:05:59;16.70;99.90
19734;DHT22;10018;51.230;7.860;2022-07-22T08:08:26;16.90;99.90
19734;DHT22;10018;51.230;7.860;2022-07-22T08:10:51;17.00;99.90
19734;DHT22;10018;51.230;7.860;2022-07-22T08:13:17;17.10;99.90
19734;DHT22;10018;51.230;7.860;2022-07-22T08:15:43;17.10;99.90
19734;DHT22;10018;51.230;7.860;2022-07-22T08:18:08;17.00;99.90
19734;DHT22;10018;51.230;7.860;2022-07-22T08:20:34;17.00;99.90
19734;DHT22;10018;51.230;7.860;2022-07-22T08:23:00;17.10;99.90
19734;DHT22;10018;51.230;7.860;2022-07-22T08:25:25;17.20;99.90
19734;DHT22;10018;51.230;7.860;2022-07-22T08:27:51;17.30;99.90
19734;DHT22;10018;51.230;7.860;2022-07-22T08:30:17;17.30;99.90
19734;DHT22;10018;51.230;7.860;2022-07-22T08:32:43;17.40;99.90
19734;DHT22;10018;51.230;7.860;2022-07-22T08:35:09;17.40;99.90
19734;DHT22;10018;51.230;7.860;2022-07-22T08:37:35;17.40;99.90
19734;DHT22;10018;51.230;7.860;2022-07-22T08:40:00;17.50;99.90
19734;DHT22;10018;51.230;7.860;2022-07-22T08:42:26;17.50;99.90
19734;DHT22;10018;51.230;7.860;2022-07-22T08:44:55;17.60;99.90
19734;DHT22;10018;51.230;7.860;2022-07-22T08:47:23;17.70;99.90
19734;DHT22;10018;51.230;7.860;2022-07-22T08:49:48;17.80;99.90
19734;DHT22;10018;51.230;7.860;2022-07-22T08:52:14;17.80;99.90
19734;DHT22;10018;51.230;7.860;2022-07-22T08:54:40;17.80;99.90
19734;DHT22;10018;51.230;7.860;2022-07-22T08:57:05;17.80;99.90
19734;DHT22;10018;51.230;7.860;2022-07-22T08:59:31;18.00;99.90
19734;DHT22;10018;51.230;7.860;2022-07-22T09:02:07;17.90;99.90
19734;DHT22;10018;51.230;7.860;2022-07-22T09:05:10;17.80;99.90
19734;DHT22;10018;51.230;7.860;2022-07-22T09:07:40;17.90;99.90
19734;DHT22;10018;51.230;7.860;2022-07-22T09:10:09;17.90;99.90
19734;DHT22;10018;51.230;7.860;2022-07-22T09:12:34;17.80;99.90
19734;DHT22;10018;51.230;7.860;2022-07-22T09:15:04;17.80;99.90
19734;DHT22;10018;51.230;7.860;2022-07-22T09:17:31;17.80;99.90
19734;DHT22;10018;51.230;7.860;2022-07-22T09:19:58;17.80;99.90
19734;DHT22;10018;51.230;7.860;2022-07-22T09:24:58;17.90;99.90
19734;DHT22;10018;51.230;7.860;2022-07-22T09:27:26;18.00;99.90
19734;DHT22;10018;51.230;7.860;2022-07-22T09:29:51;18.00;99.90
19734;DHT22;10018;51.230;7.860;2022-07-22T09:32:18;18.00;99.90
19734;DHT22;10018;51.230;7.860;2022-07-22T09:34:44;18.00;99.90
19734;DHT22;10018;51.230;7.860;2022-07-22T09:37:11;18.00;99.90
19734;DHT22;10018;51.230;7.860;2022-07-22T09:39:36;18.10;99.90
19734;DHT22;10018;51.230;7.860;2022-07-22T09:42:05;18.00;99.90
19734;DHT22;10018;51.230;7.860;2022-07-22T09:44:31;18.10;99.90
19734;DHT22;10018;51.230;7.860;2022-07-22T09:46:57;18.20;99.90
19734;DHT22;10018;51.230;7.860;2022-07-22T09:49:36;18.30;99.90
19734;DHT22;10018;51.230;7.860;2022-07-22T09:52:04;18.30;99.90
19734;DHT22;10018;51.230;7.860;2022-07-22T09:54:30;18.30;99.90
19734;DHT22;10018;51.230;7.860;2022-07-22T09:56:56;18.20;99.90
19734;DHT22;10018;51.230;7.860;2022-07-22T09:59:22;18.30;99.90
19734;DHT22;10018;51.230;7.860;2022-07-22T10:01:50;18.40;99.90
19734;DHT22;10018;51.230;7.860;2022-07-22T10:04:20;18.30;99.90
19734;DHT22;10018;51.230;7.860;2022-07-22T10:06:49;18.20;99.90
19734;DHT22;10018;51.230;7.860;2022-07-22T10:09:16;18.20;99.90
19734;DHT22;10018;51.230;7.860;2022-07-22T10:11:42;18.20;99.90
19734;DHT22;10018;51.230;7.860;2022-07-22T10:14:12;18.30;99.90
19734;DHT22;10018;51.230;7.860;2022-07-22T10:16:39;18.30;99.90
19734;DHT22;10018;51.230;7.860;2022-07-22T10:19:05;18.50;99.90
19734;DHT22;10018;51.230;7.860;2022-07-22T10:21:32;18.50;99.90
19734;DHT22;10018;51.230;7.860;2022-07-22T10:24:15;18.60;99.90
19734;DHT22;10018;51.230;7.860;2022-07-22T10:26:51;18.50;99.90
19734;DHT22;10018;51.230;7.860;2022-07-22T10:29:32;18.50;99.90
19734;DHT22;10018;51.230;7.860;2022-07-22T10:35:18;18.50;99.90
19734;DHT22;10018;51.230;7.860;2022-07-22T10:37:44;18.50;99.90
19734;DHT22;10018;51.230;7.860;2022-07-22T10:40:19;18.40;99.90
19734;DHT22;10018;51.230;7.860;2022-07-22T10:45:52;18.60;99.90
19734;DHT22;10018;51.230;7.860;2022-07-22T10:48:19;18.50;99.90
19734;DHT22;10018;51.230;7.860;2022-07-22T10:51:32;18.60;99.90
19734;DHT22;10018;51.230;7.860;2022-07-22T10:53:56;18.60;99.90
19734;DHT22;10018;51.230;7.860;2022-07-22T10:59:14;18.80;99.90
19734;DHT22;10018;51.230;7.860;2022-07-22T11:01:46;18.80;99.90
19734;DHT22;10018;51.230;7.860;2022-07-22T11:06:40;18.90;99.90
19734;DHT22;10018;51.230;7.860;2022-07-22T11:09:07;18.90;99.90
19734;DHT22;10018;51.230;7.860;2022-07-22T11:11:38;19.00;99.90
19734;DHT22;10018;51.230;7.860;2022-07-22T11:14:14;18.90;99.90
19734;DHT22;10018;51.230;7.860;2022-07-22T11:16:41;18.90;99.90
19734;DHT22;10018;51.230;7.860;2022-07-22T11:19:07;18.90;99.90
19734;DHT22;10018;51.230;7.860;2022-07-22T11:21:33;18.90;99.90
19734;DHT22;10018;51.230;7.860;2022-07-22T11:24:01;18.90;99.90
19734;DHT22;10018;51.230;7.860;2022-07-22T11:26:41;18.80;99.90
19734;DHT22;10018;51.230;7.860;2022-07-22T11:29:08;18.70;99.90
19734;DHT22;10018;51.230;7.860;2022-07-22T11:31:35;18.80;99.90
19734;DHT22;10018;51.230;7.860;2022-07-22T11:34:06;18.80;99.90
19734;DHT22;10018;51.230;7.860;2022-07-22T11:36:34;18.90;99.90
19734;DHT22;10018;51.230;7.860;2022-07-22T11:39:00;19.10;99.90
19734;DHT22;10018;51.230;7.860;2022-07-22T11:41:28;19.30;99.90
19734;DHT22;10018;51.230;7.860;2022-07-22T11:43:54;19.40;99.90
19734;DHT22;10018;51.230;7.860;2022-07-22T11:46:20;19.50;99.90
19734;DHT22;10018;51.230;7.860;2022-07-22T11:48:45;19.80;99.90
19734;DHT22;10018;51.230;7.860;2022-07-22T11:51:12;20.00;99.90
19734;DHT22;10018;51.230;7.860;2022-07-22T11:53:41;20.20;99.90
19734;DHT22;10018;51.230;7.860;2022-07-22T11:56:08;20.40;99.90
19734;DHT22;10018;51.230;7.860;2022-07-22T11:58:46;20.40;99.90
19734;DHT22;10018;51.230;7.860;2022-07-22T12:01:14;20.50;99.90
19734;DHT22;10018;51.230;7.860;2022-07-22T12:03:44;20.70;99.90
19734;DHT22;10018;51.230;7.860;2022-07-22T12:06:12;21.10;99.90
19734;DHT22;10018;51.230;7.860;2022-07-22T12:08:44;21.20;99.90
19734;DHT22;10018;51.230;7.860;2022-07-22T12:11:11;20.90;99.90
19734;DHT22;10018;51.230;7.860;2022-07-22T12:13:42;20.80;99.90
19734;DHT22;10018;51.230;7.860;2022-07-22T12:16:28;20.80;99.90
19734;DHT22;10018;51.230;7.860;2022-07-22T12:19:05;20.70;99.90
19734;DHT22;10018;51.230;7.860;2022-07-22T12:21:32;20.60;99.90
19734;DHT22;10018;51.230;7.860;2022-07-22T12:24:03;20.30;99.90
19734;DHT22;10018;51.230;7.860;2022-07-22T12:26:46;20.40;99.90
19734;DHT22;10018;51.230;7.860;2022-07-22T12:29:21;20.40;99.90
19734;DHT22;10018;51.230;7.860;2022-07-22T12:31:54;20.30;99.90
19734;DHT22;10018;51.230;7.860;2022-07-22T12:34:39;20.30;99.90
19734;DHT22;10018;51.230;7.860;2022-07-22T12:37:17;20.10;99.90
19734;DHT22;10018;51.230;7.860;2022-07-22T12:40:10;20.10;99.90
19734;DHT22;10018;51.230;7.860;2022-07-22T12:43:06;20.10;99.90
19734;DHT22;10018;51.230;7.860;2022-07-22T12:45:35;20.20;99.90
19734;DHT22;10018;51.230;7.860;2022-07-22T12:53:07;20.80;99.90
19734;DHT22;10018;51.230;7.860;2022-07-22T12:55:38;20.80;99.90
19734;DHT22;10018;51.230;7.860;2022-07-22T12:58:05;20.80;99.90
19734;DHT22;10018;51.230;7.860;2022-07-22T13:00:40;21.10;99.90
19734;DHT22;10018;51.230;7.860;2022-07-22T13:03:06;21.00;99.90
19734;DHT22;10018;51.230;7.860;2022-07-22T13:05:31;21.00;99.90
19734;DHT22;10018;51.230;7.860;2022-07-22T13:07:57;21.00;99.90
19734;DHT22;10018;51.230;7.860;2022-07-22T13:10:24;21.00;99.90
19734;DHT22;10018;51.230;7.860;2022-07-22T13:12:50;21.30;99.90
19734;DHT22;10018;51.230;7.860;2022-07-22T13:15:16;21.40;99.90
19734;DHT22;10018;51.230;7.860;2022-07-22T13:17:42;21.40;99.90
19734;DHT22;10018;51.230;7.860;2022-07-22T13:20:09;21.10;99.90
19734;DHT22;10018;51.230;7.860;2022-07-22T13:22:35;21.30;99.90
19734;DHT22;10018;51.230;7.860;2022-07-22T13:25:00;21.10;99.90
19734;DHT22;10018;51.230;7.860;2022-07-22T13:27:26;20.90;99.90
19734;DHT22;10018;51.230;7.860;2022-07-22T13:29:51;20.90;99.90
19734;DHT22;10018;51.230;7.860;2022-07-22T13:32:17;21.00;99.90
19734;DHT22;10018;51.230;7.860;2022-07-22T13:34:43;21.00;99.90
19734;DHT22;10018;51.230;7.860;2022-07-22T13:37:08;21.10;99.90
19734;DHT22;10018;51.230;7.860;2022-07-22T13:39:34;21.20;99.90
19734;DHT22;10018;51.230;7.860;2022-07-22T13:41:59;21.30;99.90
19734;DHT22;10018;51.230;7.860;2022-07-22T13:44:25;21.30;99.90
19734;DHT22;10018;51.230;7.860;2022-07-22T13:46:50;21.30;99.90
19734;DHT22;10018;51.230;7.860;2022-07-22T13:49:16;21.40;99.90
19734;DHT22;10018;51.230;7.860;2022-07-22T13:51:41;21.50;99.90
19734;DHT22;10018;51.230;7.860;2022-07-22T13:54:07;21.60;99.90
19734;DHT22;10018;51.230;7.860;2022-07-22T13:56:33;21.70;99.90
19734;DHT22;10018;51.230;7.860;2022-07-22T13:58:59;21.90;99.90
19734;DHT22;10018;51.230;7.860;2022-07-22T14:01:25;22.10;99.90
19734;DHT22;10018;51.230;7.860;2022-07-22T14:03:51;22.20;99.90
19734;DHT22;10018;51.230;7.860;2022-07-22T14:06:16;22.40;99.90
19734;DHT22;10018;51.230;7.860;2022-07-22T14:08:42;22.40;99.90
19734;DHT22;10018;51.230;7.860;2022-07-22T14:11:08;22.10;99.90
19734;DHT22;10018;51.230;7.860;2022-07-22T14:13:33;22.00;99.90
19734;DHT22;10018;51.230;7.860;2022-07-22T14:15:59;22.00;99.90
19734;DHT22;10018;51.230;7.860;2022-07-22T14:18:44;22.10;99.90
19734;DHT22;10018;51.230;7.860;2022-07-22T14:21:10;21.80;99.90
19734;DHT22;10018;51.230;7.860;2022-07-22T14:23:35;21.40;99.90
19734;DHT22;10018;51.230;7.860;2022-07-22T14:26:01;21.50;99.90
19734;DHT22;10018;51.230;7.860;2022-07-22T14:28:26;21.80;99.90
19734;DHT22;10018;51.230;7.860;2022-07-22T14:30:52;21.90;99.90
19734;DHT22;10018;51.230;7.860;2022-07-22T14:33:17;21.90;99.90
19734;DHT22;10018;51.230;7.860;2022-07-22T14:35:43;21.90;99.90
19734;DHT22;10018;51.230;7.860;2022-07-22T14:38:08;22.10;99.90
19734;DHT22;10018;51.230;7.860;2022-07-22T14:40:35;22.10;99.90
19734;DHT22;10018;51.230;7.860;2022-07-22T14:43:00;22.30;99.90
19734;DHT22;10018;51.230;7.860;2022-07-22T14:45:26;22.30;99.90
19734;DHT22;10018;51.230;7.860;2022-07-22T14:47:51;22.20;99.90
19734;DHT22;10018;51.230;7.860;2022-07-22T14:50:17;22.20;99.90
19734;DHT22;10018;51.230;7.860;2022-07-22T14:52:42;22.00;99.90
19734;DHT22;10018;51.230;7.860;2022-07-22T14:55:08;21.90;99.90
19734;DHT22;10018;51.230;7.860;2022-07-22T14:57:33;21.80;99.90
19734;DHT22;10018;51.230;7.860;2022-07-22T14:59:59;21.80;99.90
19734;DHT22;10018;51.230;7.860;2022-07-22T15:02:24;21.90;99.90
19734;DHT22;10018;51.230;7.860;2022-07-22T15:04:50;21.90;99.90
19734;DHT22;10018;51.230;7.860;2022-07-22T15:07:16;22.00;99.90
19734;DHT22;10018;51.230;7.860;2022-07-22T15:09:41;21.90;99.90
19734;DHT22;10018;51.230;7.860;2022-07-22T15:12:07;21.90;99.90
19734;DHT22;10018;51.230;7.860;2022-07-22T15:14:32;21.80;99.90
19734;DHT22;10018;51.230;7.860;2022-07-22T15:16:58;21.80;99.90
19734;DHT22;10018;51.230;7.860;2022-07-22T15:19:23;21.70;99.90
19734;DHT22;10018;51.230;7.860;2022-07-22T15:21:49;22.00;99.90
19734;DHT22;10018;51.230;7.860;2022-07-22T15:24:14;22.10;99.90
19734;DHT22;10018;51.230;7.860;2022-07-22T15:26:40;22.20;99.90
19734;DHT22;10018;51.230;7.860;2022-07-22T15:29:05;22.20;99.90
19734;DHT22;10018;51.230;7.860;2022-07-22T15:31:31;22.20;99.90
19734;DHT22;10018;51.230;7.860;2022-07-22T15:33:58;22.20;99.90
19734;DHT22;10018;51.230;7.860;2022-07-22T15:36:24;22.20;99.90
19734;DHT22;10018;51.230;7.860;2022-07-22T15:38:50;22.30;99.90
19734;DHT22;10018;51.230;7.860;2022-07-22T15:41:16;22.30;99.90
19734;DHT22;10018;51.230;7.860;2022-07-22T15:43:42;22.40;99.90
19734;DHT22;10018;51.230;7.860;2022-07-22T15:46:08;22.40;99.90
19734;DHT22;10018;51.230;7.860;2022-07-22T15:48:34;22.30;99.90